createdAt,value
2018-04-18T00:00:19.537Z,10.50
2018-04-18T00:01:19.592Z,8.40
2018-04-18T00:02:19.677Z,9.70
2018-04-18T00:03:19.569Z,13.70
2018-04-18T00:04:19.580Z,11.60
2018-04-18T00:05:19.621Z,9.50
2018-04-18T00:06:19.612Z,11.30
2018-04-18T00:07:19.723Z,13.30
2018-04-18T00:08:19.665Z,14.10
2018-04-18T00:09:19.678Z,20.40
2018-04-18T00:10:19.677Z,18.70
2018-04-18T00:11:19.678Z,17.40
2018-04-18T00:12:19.790Z,16.50
2018-04-18T00:13:19.711Z,17.10
2018-04-18T00:14:19.720Z,16.00
2018-04-18T00:15:19.731Z,12.70
2018-04-18T00:16:19.761Z,15.10
2018-04-18T00:17:19.859Z,14.50
2018-04-18T00:18:19.777Z,19.80
2018-04-18T00:19:19.821Z,20.20
2018-04-18T00:20:19.816Z,17.20
2018-04-18T00:21:19.818Z,14.50
2018-04-18T00:22:19.927Z,19.50
2018-04-18T00:23:19.848Z,19.10
2018-04-18T00:24:19.870Z,15.40
2018-04-18T00:25:19.887Z,15.90
2018-04-18T00:26:19.889Z,21.00
2018-04-18T00:27:20.006Z,22.60
2018-04-18T00:28:19.907Z,21.80
2018-04-18T00:29:19.951Z,20.00
2018-04-18T00:30:19.936Z,22.20
2018-04-18T00:31:19.953Z,21.40
2018-04-18T00:32:20.068Z,19.50
2018-04-18T00:33:20.008Z,19.60
2018-04-18T00:34:20.020Z,19.50
2018-04-18T00:35:20.009Z,17.20
2018-04-18T00:36:20.033Z,15.90
2018-04-18T00:37:20.192Z,16.40
2018-04-18T00:38:20.079Z,17.40
2018-04-18T00:39:20.091Z,20.50
2018-04-18T00:40:20.102Z,16.60
2018-04-18T00:41:20.112Z,13.90
2018-04-18T00:42:20.214Z,15.50
2018-04-18T00:43:20.140Z,22.80
2018-04-18T00:44:20.142Z,21.70
2018-04-18T00:45:20.143Z,22.10
2018-04-18T00:46:20.198Z,22.10
2018-04-18T00:47:20.269Z,23.80
2018-04-18T00:48:20.182Z,18.60
2018-04-18T00:49:20.221Z,16.40
2018-04-18T00:50:20.212Z,18.90
2018-04-18T00:51:20.235Z,20.50
2018-04-18T00:52:20.344Z,18.30
2018-04-18T00:53:20.262Z,16.80
2018-04-18T00:54:20.289Z,17.60
2018-04-18T00:55:20.285Z,17.70
2018-04-18T00:56:20.318Z,20.10
2018-04-18T00:57:20.438Z,18.10
2018-04-18T00:58:20.331Z,21.50
2018-04-18T00:59:20.358Z,19.20
2018-04-18T01:00:20.349Z,24.90
2018-04-18T01:01:20.384Z,22.80
2018-04-18T01:02:20.472Z,20.20
2018-04-18T01:03:20.383Z,24.00
2018-04-18T01:04:20.404Z,29.00
2018-04-18T01:05:20.416Z,29.00
2018-04-18T01:06:20.455Z,29.30
2018-04-18T01:07:20.602Z,25.40
2018-04-18T01:08:20.466Z,22.70
2018-04-18T01:09:20.497Z,26.80
2018-04-18T01:10:20.491Z,22.90
2018-04-18T01:11:20.522Z,26.10
2018-04-18T01:12:20.619Z,28.30
2018-04-18T01:13:20.523Z,24.60
2018-04-18T01:14:20.533Z,29.20
2018-04-18T01:15:20.551Z,26.90
2018-04-18T01:16:20.595Z,25.60
2018-04-18T01:17:20.675Z,23.70
2018-04-18T01:18:20.587Z,23.00
2018-04-18T01:19:20.631Z,19.00
2018-04-18T01:20:20.632Z,24.00
2018-04-18T01:21:20.643Z,20.80
2018-04-18T01:22:20.767Z,21.00
2018-04-18T01:23:20.684Z,20.80
2018-04-18T01:24:20.698Z,20.00
2018-04-18T01:25:20.685Z,22.90
2018-04-18T01:26:20.696Z,18.50
2018-04-18T01:27:20.813Z,19.90
2018-04-18T01:28:20.748Z,20.80
2018-04-18T01:29:20.739Z,19.40
2018-04-18T01:30:20.758Z,19.60
2018-04-18T01:31:20.795Z,22.10
2018-04-18T01:32:20.923Z,17.50
2018-04-18T01:33:20.816Z,22.40
2018-04-18T01:34:20.803Z,19.60
2018-04-18T01:35:20.828Z,21.10
2018-04-18T01:36:20.837Z,22.10
2018-04-18T01:37:20.973Z,26.10
2018-04-18T01:38:20.857Z,31.70
2018-04-18T01:39:20.869Z,32.90
2018-04-18T01:40:20.895Z,37.80
2018-04-18T01:41:20.897Z,43.10
2018-04-18T01:42:21.008Z,38.80
2018-04-18T01:43:20.957Z,39.50
2018-04-18T01:44:20.950Z,34.30
2018-04-18T01:45:20.965Z,37.10
2018-04-18T01:46:20.991Z,37.20
2018-04-18T01:47:21.074Z,42.00
2018-04-18T01:48:20.992Z,32.40
2018-04-18T01:49:21.030Z,35.80
2018-04-18T01:50:21.020Z,32.00
2018-04-18T01:51:21.044Z,29.80
2018-04-18T01:52:21.173Z,31.70
2018-04-18T01:53:21.054Z,38.40
2018-04-18T01:54:21.095Z,35.40
2018-04-18T01:55:21.130Z,37.40
2018-04-18T01:56:21.100Z,31.00
2018-04-18T01:57:21.221Z,27.40
2018-04-18T01:58:21.127Z,28.90
2018-04-18T01:59:21.156Z,28.30
2018-04-18T02:00:21.163Z,25.30
2018-04-18T02:01:21.194Z,25.30
2018-04-18T02:02:21.308Z,26.70
2018-04-18T02:03:21.191Z,28.40
2018-04-18T02:04:21.233Z,31.60
2018-04-18T02:05:21.233Z,28.40
2018-04-18T02:06:21.233Z,28.40
2018-04-18T02:07:21.349Z,31.70
2018-04-18T02:08:21.256Z,30.30
2018-04-18T02:09:21.265Z,28.10
2018-04-18T02:10:21.312Z,30.80
2018-04-18T02:11:21.329Z,28.50
2018-04-18T02:12:21.318Z,26.50
2018-04-18T02:13:21.447Z,28.50
2018-04-18T02:14:21.365Z,29.30
2018-04-18T02:15:21.374Z,26.80
2018-04-18T02:16:21.369Z,23.70
2018-04-18T02:17:21.374Z,24.70
2018-04-18T02:18:21.488Z,26.50
2018-04-18T02:19:21.411Z,26.00
2018-04-18T02:20:21.412Z,22.10
2018-04-18T02:21:21.461Z,25.00
2018-04-18T02:22:21.453Z,25.30
2018-04-18T02:23:21.557Z,22.80
2018-04-18T02:24:21.472Z,24.80
2018-04-18T02:25:21.484Z,22.80
2018-04-18T02:26:21.493Z,26.40
2018-04-18T02:27:21.535Z,23.60
2018-04-18T02:28:21.628Z,22.60
2018-04-18T02:29:21.534Z,23.10
2018-04-18T02:30:21.558Z,29.60
2018-04-18T02:31:21.614Z,25.80
2018-04-18T02:32:21.571Z,21.60
2018-04-18T02:33:21.688Z,26.90
2018-04-18T02:34:21.630Z,26.70
2018-04-18T02:35:21.637Z,20.10
2018-04-18T02:36:21.629Z,21.50
2018-04-18T02:37:21.637Z,18.70
2018-04-18T02:38:21.751Z,21.20
2018-04-18T02:39:21.671Z,21.00
2018-04-18T02:40:21.710Z,21.20
2018-04-18T02:41:21.706Z,17.60
2018-04-18T02:42:21.734Z,18.10
2018-04-18T02:43:21.821Z,20.40
2018-04-18T02:44:21.728Z,19.30
2018-04-18T02:45:21.769Z,20.80
2018-04-18T02:46:21.762Z,21.90
2018-04-18T02:47:21.767Z,17.60
2018-04-18T02:48:21.891Z,19.50
2018-04-18T02:49:21.799Z,20.00
2018-04-18T02:50:21.831Z,21.70
2018-04-18T02:51:21.833Z,21.90
2018-04-18T02:52:21.858Z,18.00
2018-04-18T02:53:21.945Z,18.10
2018-04-18T02:54:21.869Z,18.60
2018-04-18T02:55:21.886Z,19.60
2018-04-18T02:56:21.909Z,21.10
2018-04-18T02:57:21.899Z,22.90
2018-04-18T02:58:22.010Z,23.70
2018-04-18T02:59:21.925Z,24.50
2018-04-18T03:00:21.936Z,33.20
2018-04-18T03:01:21.955Z,35.60
2018-04-18T03:02:21.966Z,27.90
2018-04-18T03:03:22.104Z,28.80
2018-04-18T03:04:21.997Z,27.60
2018-04-18T03:05:22.030Z,27.50
2018-04-18T03:06:22.020Z,27.40
2018-04-18T03:07:22.037Z,23.60
2018-04-18T03:08:22.138Z,25.50
2018-04-18T03:09:22.060Z,24.50
2018-04-18T03:10:22.093Z,22.90
2018-04-18T03:11:22.079Z,24.00
2018-04-18T03:12:22.120Z,24.70
2018-04-18T03:13:22.210Z,25.30
2018-04-18T03:14:22.151Z,22.10
2018-04-18T03:15:22.129Z,22.70
2018-04-18T03:16:22.169Z,22.30
2018-04-18T03:17:22.185Z,25.80
2018-04-18T03:18:22.294Z,21.90
2018-04-18T03:19:22.207Z,23.40
2018-04-18T03:20:22.196Z,24.10
2018-04-18T03:21:22.231Z,25.60
2018-04-18T03:22:22.219Z,34.40
2018-04-18T03:23:22.344Z,30.70
2018-04-18T03:24:22.276Z,29.10
2018-04-18T03:25:22.266Z,28.40
2018-04-18T03:26:22.297Z,28.40
2018-04-18T03:27:22.287Z,28.80
2018-04-18T03:28:22.322Z,29.30
2018-04-18T03:29:22.439Z,24.00
2018-04-18T03:30:22.324Z,27.30
2018-04-18T03:31:22.336Z,26.10
2018-04-18T03:32:22.351Z,27.00
2018-04-18T03:33:22.369Z,25.00
2018-04-18T03:34:22.505Z,24.20
2018-04-18T03:35:22.403Z,23.90
2018-04-18T03:36:22.405Z,25.80
2018-04-18T03:37:22.418Z,26.70
2018-04-18T03:38:22.431Z,27.80
2018-04-18T03:39:22.569Z,28.30
2018-04-18T03:40:22.454Z,28.10
2018-04-18T03:41:22.498Z,28.70
2018-04-18T03:42:22.478Z,22.20
2018-04-18T03:43:22.506Z,21.70
2018-04-18T03:44:22.654Z,23.60
2018-04-18T03:45:22.521Z,27.30
2018-04-18T03:46:22.555Z,22.10
2018-04-18T03:47:22.543Z,22.40
2018-04-18T03:48:22.583Z,26.70
2018-04-18T03:49:22.692Z,23.50
2018-04-18T03:50:22.588Z,25.20
2018-04-18T03:51:22.626Z,29.20
2018-04-18T03:52:22.632Z,27.10
2018-04-18T03:53:22.620Z,28.80
2018-04-18T03:54:22.732Z,30.40
2018-04-18T03:55:22.651Z,34.70
2018-04-18T03:56:22.666Z,36.10
2018-04-18T03:57:22.668Z,33.90
2018-04-18T03:58:22.686Z,28.20
2018-04-18T03:59:22.826Z,33.50
2018-04-18T04:00:22.717Z,30.30
2018-04-18T04:01:22.719Z,32.80
2018-04-18T04:02:22.761Z,29.80
2018-04-18T04:03:22.771Z,30.20
2018-04-18T04:04:22.861Z,34.60
2018-04-18T04:05:22.773Z,34.10
2018-04-18T04:06:22.811Z,35.10
2018-04-18T04:07:22.809Z,34.60
2018-04-18T04:08:22.819Z,33.90
2018-04-18T04:09:22.951Z,37.30
2018-04-18T04:10:22.838Z,34.80
2018-04-18T04:11:22.850Z,31.20
2018-04-18T04:12:22.864Z,35.90
2018-04-18T04:13:22.898Z,34.50
2018-04-18T04:14:23.066Z,30.70
2018-04-18T04:15:22.911Z,33.60
2018-04-18T04:16:22.927Z,35.40
2018-04-18T04:17:22.924Z,36.50
2018-04-18T04:18:22.965Z,32.60
2018-04-18T04:19:23.060Z,30.60
2018-04-18T04:20:22.989Z,30.50
2018-04-18T04:21:22.982Z,34.20
2018-04-18T04:22:22.992Z,28.50
2018-04-18T04:23:23.000Z,28.70
2018-04-18T04:24:23.124Z,29.70
2018-04-18T04:25:23.026Z,32.00
2018-04-18T04:26:23.037Z,25.30
2018-04-18T04:27:23.066Z,29.60
2018-04-18T04:28:23.063Z,26.80
2018-04-18T04:29:23.184Z,25.90
2018-04-18T04:30:23.089Z,24.30
2018-04-18T04:31:23.101Z,22.30
2018-04-18T04:32:23.125Z,25.70
2018-04-18T04:33:23.129Z,26.30
2018-04-18T04:34:23.249Z,23.60
2018-04-18T04:35:23.163Z,24.40
2018-04-18T04:36:23.164Z,22.60
2018-04-18T04:37:23.181Z,21.40
2018-04-18T04:38:23.189Z,30.60
2018-04-18T04:39:23.316Z,25.30
2018-04-18T04:40:23.231Z,26.60
2018-04-18T04:41:23.227Z,24.30
2018-04-18T04:42:23.242Z,25.30
2018-04-18T04:43:23.258Z,21.60
2018-04-18T04:44:23.277Z,23.10
2018-04-18T04:45:23.391Z,22.70
2018-04-18T04:46:23.289Z,21.50
2018-04-18T04:47:23.316Z,22.20
2018-04-18T04:48:23.328Z,19.10
2018-04-18T04:49:23.330Z,22.20
2018-04-18T04:50:23.446Z,21.00
2018-04-18T04:51:23.353Z,23.70
2018-04-18T04:52:23.378Z,22.80
2018-04-18T04:53:23.378Z,23.00
2018-04-18T04:54:23.402Z,22.40
2018-04-18T04:55:23.502Z,18.20
2018-04-18T04:56:23.442Z,19.10
2018-04-18T04:57:23.428Z,22.30
2018-04-18T04:58:23.448Z,20.10
2018-04-18T04:59:23.450Z,21.20
2018-04-18T05:00:23.595Z,19.70
2018-04-18T05:01:23.481Z,19.30
2018-04-18T05:02:23.524Z,20.00
2018-04-18T05:03:23.518Z,18.10
2018-04-18T05:04:23.513Z,21.10
2018-04-18T05:05:23.627Z,21.00
2018-04-18T05:06:23.541Z,21.00
2018-04-18T05:07:23.578Z,19.10
2018-04-18T05:08:23.568Z,24.00
2018-04-18T05:09:23.603Z,23.10
2018-04-18T05:10:23.782Z,23.30
2018-04-18T05:11:23.610Z,15.30
2018-04-18T05:12:23.619Z,19.80
2018-04-18T05:13:23.630Z,17.90
2018-04-18T05:14:23.647Z,21.50
2018-04-18T05:15:23.756Z,17.00
2018-04-18T05:16:23.690Z,23.20
2018-04-18T05:17:23.704Z,23.70
2018-04-18T05:18:23.694Z,19.70
2018-04-18T05:19:23.727Z,23.10
2018-04-18T05:20:23.815Z,25.50
2018-04-18T05:21:23.755Z,21.60
2018-04-18T05:22:23.741Z,25.20
2018-04-18T05:23:23.780Z,23.40
2018-04-18T05:24:23.772Z,25.50
2018-04-18T05:25:23.875Z,26.50
2018-04-18T05:26:23.816Z,26.40
2018-04-18T05:27:23.798Z,27.60
2018-04-18T05:28:23.829Z,28.50
2018-04-18T05:29:23.836Z,33.20
2018-04-18T05:30:23.967Z,34.90
2018-04-18T05:31:23.878Z,31.20
2018-04-18T05:32:23.887Z,28.90
2018-04-18T05:33:23.874Z,29.40
2018-04-18T05:34:23.888Z,32.40
2018-04-18T05:35:24.013Z,32.50
2018-04-18T05:36:23.922Z,34.30
2018-04-18T05:37:23.931Z,35.90
2018-04-18T05:38:23.935Z,36.20
2018-04-18T05:39:23.951Z,40.30
2018-04-18T05:40:24.088Z,61.50
2018-04-18T05:41:23.968Z,48.10
2018-04-18T05:42:24.014Z,42.90
2018-04-18T05:43:24.010Z,49.00
2018-04-18T05:44:24.015Z,53.50
2018-04-18T05:45:24.146Z,55.80
2018-04-18T05:46:24.059Z,54.60
2018-04-18T05:47:24.079Z,47.60
2018-04-18T05:48:24.063Z,43.00
2018-04-18T05:49:24.078Z,39.40
2018-04-18T05:50:24.209Z,41.90
2018-04-18T05:51:24.096Z,46.10
2018-04-18T05:52:24.158Z,43.20
2018-04-18T05:53:24.130Z,37.70
2018-04-18T05:54:24.142Z,38.90
2018-04-18T05:55:24.338Z,36.50
2018-04-18T05:56:24.157Z,40.20
2018-04-18T05:57:24.194Z,43.90
2018-04-18T05:58:24.185Z,37.80
2018-04-18T05:59:24.222Z,37.30
2018-04-18T06:00:24.331Z,39.30
2018-04-18T06:01:24.222Z,42.90
2018-04-18T06:02:24.249Z,42.10
2018-04-18T06:03:24.245Z,40.10
2018-04-18T06:04:24.255Z,39.70
2018-04-18T06:05:24.296Z,40.70
2018-04-18T06:06:24.380Z,44.10
2018-04-18T06:07:24.317Z,40.60
2018-04-18T06:08:24.331Z,42.20
2018-04-18T06:09:24.330Z,42.10
2018-04-18T06:10:24.329Z,44.90
2018-04-18T06:11:24.469Z,42.80
2018-04-18T06:12:24.354Z,41.00
2018-04-18T06:13:24.374Z,46.10
2018-04-18T06:14:24.373Z,44.80
2018-04-18T06:15:24.392Z,47.00
2018-04-18T06:16:24.505Z,45.20
2018-04-18T06:17:24.442Z,45.60
2018-04-18T06:18:24.425Z,43.90
2018-04-18T06:19:24.449Z,42.60
2018-04-18T06:20:24.476Z,45.40
2018-04-18T06:21:24.588Z,44.20
2018-04-18T06:22:24.502Z,49.30
2018-04-18T06:23:24.490Z,40.60
2018-04-18T06:24:24.507Z,42.90
2018-04-18T06:25:24.535Z,36.20
2018-04-18T06:26:24.637Z,35.20
2018-04-18T06:27:24.535Z,32.10
2018-04-18T06:28:24.576Z,31.90
2018-04-18T06:29:24.560Z,29.40
2018-04-18T06:30:24.571Z,29.70
2018-04-18T06:31:24.680Z,27.00
2018-04-18T06:32:24.598Z,24.60
2018-04-18T06:33:24.635Z,27.00
2018-04-18T06:34:24.631Z,30.80
2018-04-18T06:35:24.664Z,29.10
2018-04-18T06:36:24.749Z,26.70
2018-04-18T06:37:24.687Z,24.50
2018-04-18T06:38:24.672Z,31.40
2018-04-18T06:39:24.687Z,25.20
2018-04-18T06:40:24.692Z,25.20
2018-04-18T06:41:24.833Z,23.60
2018-04-18T06:42:24.720Z,25.90
2018-04-18T06:43:24.728Z,24.10
2018-04-18T06:44:24.740Z,29.90
2018-04-18T06:45:24.751Z,26.60
2018-04-18T06:46:24.890Z,27.10
2018-04-18T06:47:24.797Z,24.70
2018-04-18T06:48:24.792Z,26.30
2018-04-18T06:49:24.807Z,26.60
2018-04-18T06:50:24.842Z,23.90
2018-04-18T06:51:24.937Z,27.40
2018-04-18T06:52:24.870Z,31.50
2018-04-18T06:53:24.848Z,33.00
2018-04-18T06:54:24.872Z,30.40
2018-04-18T06:55:24.898Z,35.90
2018-04-18T06:56:25.014Z,35.70
2018-04-18T06:57:24.895Z,33.80
2018-04-18T06:58:24.936Z,42.80
2018-04-18T06:59:24.917Z,38.00
2018-04-18T07:00:24.962Z,37.30
2018-04-18T07:01:25.056Z,38.00
2018-04-18T07:02:24.987Z,38.10
2018-04-18T07:03:24.984Z,39.00
2018-04-18T07:04:25.014Z,42.00
2018-04-18T07:05:25.002Z,40.60
2018-04-18T07:06:25.132Z,39.20
2018-04-18T07:07:25.015Z,40.00
2018-04-18T07:08:25.055Z,37.90
2018-04-18T07:09:25.054Z,35.60
2018-04-18T07:10:25.054Z,40.50
2018-04-18T07:11:25.186Z,43.90
2018-04-18T07:12:25.112Z,42.70
2018-04-18T07:13:25.096Z,49.10
2018-04-18T07:14:25.106Z,56.50
2018-04-18T07:15:25.140Z,57.60
2018-04-18T07:16:25.233Z,56.20
2018-04-18T07:17:25.139Z,49.70
2018-04-18T07:18:25.145Z,55.80
2018-04-18T07:19:25.177Z,58.60
2018-04-18T07:20:25.200Z,59.80
2018-04-18T07:21:25.229Z,57.60
2018-04-18T07:22:25.303Z,54.10
2018-04-18T07:23:25.211Z,57.10
2018-04-18T07:24:25.227Z,51.50
2018-04-18T07:25:25.238Z,56.00
2018-04-18T07:26:25.245Z,56.70
2018-04-18T07:27:25.358Z,60.10
2018-04-18T07:28:25.278Z,63.90
2018-04-18T07:29:25.307Z,65.60
2018-04-18T07:30:25.293Z,51.30
2018-04-18T07:31:25.313Z,51.90
2018-04-18T07:32:25.443Z,57.50
2018-04-18T07:33:25.340Z,50.30
2018-04-18T07:34:25.354Z,50.10
2018-04-18T07:35:25.364Z,47.90
2018-04-18T07:36:25.367Z,56.80
2018-04-18T07:37:25.480Z,46.10
2018-04-18T07:38:25.392Z,49.00
2018-04-18T07:39:25.428Z,49.00
2018-04-18T07:40:25.424Z,44.50
2018-04-18T07:41:25.454Z,37.20
2018-04-18T07:42:25.540Z,40.80
2018-04-18T07:43:25.449Z,33.80
2018-04-18T07:44:25.542Z,41.80
2018-04-18T07:45:25.501Z,38.20
2018-04-18T07:46:25.485Z,44.30
2018-04-18T07:47:25.629Z,29.40
2018-04-18T07:48:25.529Z,30.90
2018-04-18T07:49:25.554Z,42.10
2018-04-18T07:50:25.565Z,28.60
2018-04-18T07:51:25.575Z,32.70
2018-04-18T07:52:25.656Z,28.00
2018-04-18T07:53:25.584Z,27.80
2018-04-18T07:54:25.590Z,27.70
2018-04-18T07:55:25.617Z,25.30
2018-04-18T07:56:25.634Z,26.90
2018-04-18T07:57:25.744Z,25.10
2018-04-18T07:58:25.632Z,25.30
2018-04-18T07:59:25.689Z,29.00
2018-04-18T08:00:25.678Z,26.00
2018-04-18T08:01:25.665Z,24.30
2018-04-18T08:02:25.779Z,20.60
2018-04-18T08:03:25.689Z,25.40
2018-04-18T08:04:25.698Z,25.30
2018-04-18T08:05:25.739Z,29.50
2018-04-18T08:06:25.725Z,33.50
2018-04-18T08:07:25.843Z,25.60
2018-04-18T08:08:25.755Z,29.20
2018-04-18T08:09:25.773Z,27.10
2018-04-18T08:10:25.775Z,28.70
2018-04-18T08:11:25.808Z,24.10
2018-04-18T08:12:25.897Z,24.90
2018-04-18T08:13:25.831Z,25.40
2018-04-18T08:14:25.845Z,27.10
2018-04-18T08:15:25.910Z,20.60
2018-04-18T08:16:25.838Z,23.80
2018-04-18T08:17:25.982Z,22.80
2018-04-18T08:18:25.872Z,26.00
2018-04-18T08:19:25.905Z,23.20
2018-04-18T08:20:25.892Z,18.20
2018-04-18T08:21:25.930Z,22.00
2018-04-18T08:22:26.021Z,18.90
2018-04-18T08:23:25.927Z,20.00
2018-04-18T08:24:25.939Z,19.90
2018-04-18T08:25:25.973Z,28.70
2018-04-18T08:26:25.963Z,26.50
2018-04-18T08:27:26.076Z,28.90
2018-04-18T08:28:25.999Z,24.80
2018-04-18T08:29:26.035Z,26.00
2018-04-18T08:30:26.024Z,26.40
2018-04-18T08:31:26.024Z,25.20
2018-04-18T08:32:26.157Z,25.10
2018-04-18T08:33:26.041Z,20.30
2018-04-18T08:34:26.072Z,25.50
2018-04-18T08:35:26.073Z,24.80
2018-04-18T08:36:26.073Z,24.00
2018-04-18T08:37:26.215Z,21.50
2018-04-18T08:38:26.102Z,25.00
2018-04-18T08:39:26.115Z,25.10
2018-04-18T08:40:26.126Z,26.20
2018-04-18T08:41:26.137Z,24.30
2018-04-18T08:42:26.278Z,24.90
2018-04-18T08:43:26.187Z,28.30
2018-04-18T08:44:26.176Z,32.00
2018-04-18T08:45:26.214Z,28.90
2018-04-18T08:46:26.230Z,35.00
2018-04-18T08:47:26.223Z,34.00
2018-04-18T08:48:26.321Z,37.90
2018-04-18T08:49:26.253Z,37.20
2018-04-18T08:50:26.245Z,39.00
2018-04-18T08:51:26.286Z,39.00
2018-04-18T08:52:26.271Z,36.70
2018-04-18T08:53:26.376Z,37.40
2018-04-18T08:54:26.293Z,39.20
2018-04-18T08:55:26.331Z,41.40
2018-04-18T08:56:26.314Z,40.80
2018-04-18T08:57:26.325Z,44.70
2018-04-18T08:58:26.517Z,53.30
2018-04-18T08:59:26.379Z,50.50
2018-04-18T09:00:26.373Z,51.30
2018-04-18T09:01:26.384Z,54.70
2018-04-18T09:02:26.388Z,54.00
2018-04-18T09:03:26.507Z,52.10
2018-04-18T09:04:26.417Z,50.80
2018-04-18T09:05:26.421Z,49.20
2018-04-18T09:06:26.457Z,50.60
2018-04-18T09:07:26.454Z,51.00
2018-04-18T09:08:26.560Z,50.10
2018-04-18T09:09:26.472Z,61.80
2018-04-18T09:10:26.483Z,58.20
2018-04-18T09:11:26.524Z,59.30
2018-04-18T09:12:26.534Z,54.80
2018-04-18T09:13:26.644Z,59.90
2018-04-18T09:14:26.546Z,60.00
2018-04-18T09:15:26.565Z,59.90
2018-04-18T09:16:26.583Z,61.70
2018-04-18T09:17:26.590Z,62.70
2018-04-18T09:18:26.684Z,65.50
2018-04-18T09:19:26.587Z,63.50
2018-04-18T09:20:26.607Z,63.80
2018-04-18T09:21:26.626Z,62.20
2018-04-18T09:22:26.653Z,64.30
2018-04-18T09:23:26.741Z,58.50
2018-04-18T09:24:26.655Z,62.60
2018-04-18T09:25:26.659Z,59.30
2018-04-18T09:26:26.670Z,63.60
2018-04-18T09:27:26.682Z,55.20
2018-04-18T09:28:26.866Z,42.10
2018-04-18T09:29:26.706Z,42.20
2018-04-18T09:30:26.722Z,41.40
2018-04-18T09:31:26.730Z,43.10
2018-04-18T09:32:26.747Z,50.50
2018-04-18T09:33:26.857Z,42.30
2018-04-18T09:34:26.766Z,41.30
2018-04-18T09:35:26.779Z,43.50
2018-04-18T09:36:26.795Z,43.70
2018-04-18T09:37:26.801Z,42.70
2018-04-18T09:38:26.917Z,43.20
2018-04-18T09:39:26.840Z,37.40
2018-04-18T09:40:26.839Z,32.90
2018-04-18T09:41:26.878Z,35.80
2018-04-18T09:42:26.874Z,39.10
2018-04-18T09:43:27.003Z,38.10
2018-04-18T09:44:26.891Z,38.50
2018-04-18T09:45:26.927Z,37.40
2018-04-18T09:46:26.923Z,37.50
2018-04-18T09:47:26.955Z,36.30
2018-04-18T09:48:27.045Z,36.60
2018-04-18T09:49:26.951Z,33.20
2018-04-18T09:50:26.961Z,33.30
2018-04-18T09:51:26.979Z,35.50
2018-04-18T09:52:27.014Z,32.00
2018-04-18T09:53:27.099Z,31.80
2018-04-18T09:54:27.017Z,33.50
2018-04-18T09:55:27.048Z,35.60
2018-04-18T09:56:27.063Z,37.10
2018-04-18T09:57:27.046Z,40.20
2018-04-18T09:58:27.247Z,37.90
2018-04-18T09:59:27.073Z,34.20
2018-04-18T10:00:27.088Z,38.30
2018-04-18T10:01:27.103Z,40.10
2018-04-18T10:02:27.136Z,28.90
2018-04-18T10:03:27.253Z,29.60
2018-04-18T10:04:27.128Z,27.60
2018-04-18T10:05:27.147Z,30.00
2018-04-18T10:06:27.157Z,26.20
2018-04-18T10:07:27.169Z,27.60
2018-04-18T10:08:27.183Z,27.20
2018-04-18T10:09:27.327Z,28.70
2018-04-18T10:10:27.235Z,29.40
2018-04-18T10:11:27.245Z,29.00
2018-04-18T10:12:27.265Z,30.10
2018-04-18T10:13:27.249Z,28.10
2018-04-18T10:14:27.355Z,29.50
2018-04-18T10:15:27.272Z,27.60
2018-04-18T10:16:27.284Z,27.40
2018-04-18T10:17:27.322Z,27.50
2018-04-18T10:18:27.304Z,26.30
2018-04-18T10:19:27.417Z,27.30
2018-04-18T10:20:27.333Z,25.70
2018-04-18T10:21:27.346Z,25.90
2018-04-18T10:22:27.389Z,28.40
2018-04-18T10:23:27.374Z,26.60
2018-04-18T10:24:27.481Z,27.50
2018-04-18T10:25:27.399Z,27.50
2018-04-18T10:26:27.404Z,24.70
2018-04-18T10:27:27.423Z,28.50
2018-04-18T10:28:27.446Z,24.50
2018-04-18T10:29:27.574Z,26.80
2018-04-18T10:30:27.460Z,28.40
2018-04-18T10:31:27.484Z,25.10
2018-04-18T10:32:27.484Z,24.90
2018-04-18T10:33:27.497Z,29.90
2018-04-18T10:34:27.642Z,28.40
2018-04-18T10:35:27.523Z,22.00
2018-04-18T10:36:27.540Z,29.00
2018-04-18T10:37:27.579Z,28.80
2018-04-18T10:38:27.596Z,32.30
2018-04-18T10:39:27.754Z,28.60
2018-04-18T10:40:27.615Z,32.60
2018-04-18T10:41:27.603Z,33.00
2018-04-18T10:42:27.627Z,31.00
2018-04-18T10:43:27.628Z,32.90
2018-04-18T10:44:27.757Z,31.90
2018-04-18T10:45:27.685Z,31.20
2018-04-18T10:46:27.694Z,31.70
2018-04-18T10:47:27.707Z,31.40
2018-04-18T10:48:27.699Z,27.70
2018-04-18T10:49:27.817Z,27.50
2018-04-18T10:50:27.717Z,23.00
2018-04-18T10:51:27.743Z,30.30
2018-04-18T10:52:27.747Z,32.50
2018-04-18T10:53:27.761Z,29.50
2018-04-18T10:54:27.890Z,30.30
2018-04-18T10:55:27.791Z,30.10
2018-04-18T10:56:27.807Z,31.70
2018-04-18T10:57:27.820Z,28.60
2018-04-18T10:58:27.828Z,30.30
2018-04-18T10:59:27.971Z,29.20
2018-04-18T11:00:27.856Z,33.00
2018-04-18T11:01:27.871Z,32.70
2018-04-18T11:02:27.923Z,32.00
2018-04-18T11:03:27.905Z,31.30
2018-04-18T11:04:28.010Z,31.00
2018-04-18T11:05:27.922Z,32.60
2018-04-18T11:06:27.934Z,33.30
2018-04-18T11:07:27.948Z,32.80
2018-04-18T11:08:27.999Z,30.10
2018-04-18T11:09:28.081Z,35.50
2018-04-18T11:10:28.035Z,29.40
2018-04-18T11:11:28.015Z,31.50
2018-04-18T11:12:28.028Z,30.80
2018-04-18T11:13:28.033Z,26.50
2018-04-18T11:14:28.231Z,21.10
2018-04-18T11:15:28.068Z,22.60
2018-04-18T11:16:28.080Z,21.90
2018-04-18T11:17:28.104Z,16.30
2018-04-18T11:18:28.123Z,19.30
2018-04-18T11:19:28.123Z,21.40
2018-04-18T11:20:28.238Z,16.80
2018-04-18T11:21:28.175Z,19.10
2018-04-18T11:22:28.161Z,19.10
2018-04-18T11:23:28.178Z,18.10
2018-04-18T11:24:28.204Z,16.70
2018-04-18T11:25:28.307Z,17.90
2018-04-18T11:26:28.250Z,19.10
2018-04-18T11:27:28.239Z,17.20
2018-04-18T11:28:28.254Z,18.80
2018-04-18T11:29:28.296Z,21.30
2018-04-18T11:30:28.382Z,32.50
2018-04-18T11:31:28.351Z,25.60
2018-04-18T11:32:28.325Z,21.30
2018-04-18T11:33:28.332Z,25.80
2018-04-18T11:34:28.343Z,21.50
2018-04-18T11:35:28.463Z,22.80
2018-04-18T11:36:28.383Z,22.20
2018-04-18T11:37:28.415Z,19.90
2018-04-18T11:38:28.433Z,22.50
2018-04-18T11:39:28.453Z,26.70
2018-04-18T11:40:28.548Z,25.10
2018-04-18T11:41:28.475Z,28.50
2018-04-18T11:42:28.495Z,26.40
2018-04-18T11:43:28.507Z,18.20
2018-04-18T11:44:28.510Z,16.70
2018-04-18T11:45:29.649Z,15.40
2018-04-18T11:46:28.530Z,15.90
2018-04-18T11:47:28.552Z,15.50
2018-04-18T11:48:28.590Z,19.80
2018-04-18T11:49:28.600Z,11.70
2018-04-18T11:50:28.707Z,14.90
2018-04-18T11:51:28.635Z,11.00
2018-04-18T11:52:28.657Z,15.00
2018-04-18T11:53:28.639Z,15.20
2018-04-18T11:54:28.653Z,19.00
2018-04-18T11:55:28.802Z,16.60
2018-04-18T11:56:28.714Z,21.10
2018-04-18T11:57:28.707Z,23.80
2018-04-18T11:58:28.723Z,17.80
2018-04-18T11:59:28.741Z,19.40
2018-04-18T12:00:28.864Z,18.90
2018-04-18T12:01:28.777Z,20.60
2018-04-18T12:02:28.811Z,18.60
2018-04-18T12:03:28.833Z,18.60
2018-04-18T12:04:28.843Z,17.50
2018-04-18T12:05:28.931Z,21.90
2018-04-18T12:06:28.873Z,24.90
2018-04-18T12:07:28.896Z,23.60
2018-04-18T12:08:28.908Z,24.60
2018-04-18T12:09:28.924Z,21.80
2018-04-18T12:10:29.031Z,18.40
2018-04-18T12:11:28.981Z,15.50
2018-04-18T12:12:28.980Z,11.10
2018-04-18T12:13:28.972Z,14.80
2018-04-18T12:14:28.995Z,16.70
2018-04-18T12:15:29.130Z,11.10
2018-04-18T12:16:29.022Z,9.10
2018-04-18T12:17:29.064Z,14.10
2018-04-18T12:18:29.062Z,15.40
2018-04-18T12:19:29.074Z,17.00
2018-04-18T12:20:29.219Z,12.80
2018-04-18T12:21:29.109Z,14.10
2018-04-18T12:22:29.152Z,13.10
2018-04-18T12:23:29.170Z,9.70
2018-04-18T12:24:29.197Z,10.70
2018-04-18T12:25:29.282Z,11.10
2018-04-18T12:26:29.224Z,10.70
2018-04-18T12:27:29.224Z,13.40
2018-04-18T12:28:29.238Z,16.20
2018-04-18T12:29:29.276Z,15.30
2018-04-18T12:30:29.370Z,12.70
2018-04-18T12:31:29.288Z,11.30
2018-04-18T12:32:29.315Z,15.40
2018-04-18T12:33:29.320Z,14.80
2018-04-18T12:34:29.367Z,13.90
2018-04-18T12:35:29.462Z,17.50
2018-04-18T12:36:29.391Z,17.10
2018-04-18T12:37:29.399Z,14.30
2018-04-18T12:38:29.426Z,11.50
2018-04-18T12:39:29.458Z,9.20
2018-04-18T12:40:29.556Z,12.90
2018-04-18T12:41:29.482Z,12.10
2018-04-18T12:42:29.492Z,14.10
2018-04-18T12:43:29.528Z,11.20
2018-04-18T12:44:29.561Z,11.60
2018-04-18T12:45:29.674Z,7.80
2018-04-18T12:46:29.569Z,11.90
2018-04-18T12:47:29.614Z,13.70
2018-04-18T12:48:29.608Z,12.90
2018-04-18T12:49:29.626Z,15.60
2018-04-18T12:50:29.746Z,13.20
2018-04-18T12:51:29.685Z,12.30
2018-04-18T12:52:29.709Z,13.30